Time;durP1;ratioP1;P1;durP2;ratioP2;P2;SDS_P1;SDS_P2;PMS_P1;PMS_P2;Temp;Humidity;BMP_temperature;BMP_pressure;BME280_temperature;BME280_humidity;BME280_pressure;Samples;Min_cycle;Max_cycle;Signal;HPM_P1;HPM_P2
2021/06/02 05:50:35;;;;;;;20.48;5.12;;;;;;;15.79;55.44;101037.52;1693027;82;34943;-55
2021/06/02 05:53:33;;;;;;;14.07;4.15;;;;;;;15.85;55.12;101033.49;1669672;82;25870;-54
2021/06/02 05:56:53;;;;;;;10.48;3.95;;;;;;;15.92;54.89;101035.72;1638996;84;28301;-55
2021/06/02 06:00:04;;;;;;;9.60;3.58;;;;;;;16.03;54.82;101038.30;1605019;86;25902;-55
2021/06/02 06:02:59;;;;;;;16.32;4.53;;;;;;;16.07;53.55;101043.90;1639139;85;25746;-55
2021/06/02 06:06:10;;;;;;;24.30;4.87;;;;;;;16.12;54.29;101042.34;1640779;85;25906;-56
2021/06/02 06:09:17;;;;;;;8.63;3.40;;;;;;;16.26;53.68;101044.88;1657175;85;26093;-56
2021/06/02 06:12:28;;;;;;;39.92;4.92;;;;;;;16.36;52.89;101047.77;1674110;84;27377;-56
2021/06/02 06:15:36;;;;;;;22.60;5.12;;;;;;;16.38;53.10;101048.27;1666235;84;27441;-55
2021/06/02 06:18:30;;;;;;;9.05;3.60;;;;;;;16.52;53.11;101053.48;1669392;84;25762;-55
2021/06/02 06:21:28;;;;;;;9.40;4.05;;;;;;;16.62;52.67;101057.20;1673508;84;26419;-54
2021/06/02 06:24:24;;;;;;;7.60;3.87;;;;;;;16.78;52.96;101051.36;1673407;84;25725;-54
2021/06/02 06:27:18;;;;;;;4.83;3.55;;;;;;;16.93;52.14;101052.73;1668910;84;27329;-54
2021/06/02 06:30:02;;;;;;;10.78;4.50;;;;;;;17.18;51.80;101047.40;1636113;84;25879;-54
2021/06/02 06:32:32;;;;;;;8.33;4.55;;;;;;;17.49;51.70;101046.94;1696857;82;26847;-54
2021/06/02 06:35:00;;;;;;;;;;;;;;;17.88;50.56;101043.40;1717814;81;25953;-55
2021/06/02 06:37:32;;;;;;;6.80;3.12;;;;;;;18.16;49.69;101050.14;1699908;82;25746;-56
2021/06/02 06:40:04;;;;;;;5.40;3.42;;;;;;;18.28;48.75;101052.88;1700221;82;27917;-55
2021/06/02 06:42:42;;;;;;;6.80;3.58;;;;;;;18.47;49.27;101051.73;1704236;81;26402;-61
2021/06/02 06:45:16;;;;;;;15.98;4.17;;;;;;;18.78;49.43;101054.42;1706635;82;25714;-61
2021/06/02 06:47:46;;;;;;;9.15;3.30;;;;;;;19.08;49.08;101055.49;1693445;83;25830;-60
2021/06/02 06:50:15;;;;;;;9.85;3.30;;;;;;;19.43;48.54;101052.71;1690121;83;25849;-61
2021/06/02 06:52:54;;;;;;;13.35;3.22;;;;;;;19.73;48.01;101054.48;1686278;82;27325;-61
2021/06/02 06:55:23;;;;;;;8.50;3.17;;;;;;;20.13;47.21;101052.19;1688969;83;27199;-61
2021/06/02 06:57:50;;;;;;;6.70;3.02;;;;;;;20.62;46.51;101049.03;1689005;83;26158;-60
2021/06/02 07:00:18;;;;;;;9.70;3.35;;;;;;;21.04;45.90;101053.03;1672747;83;26975;-61
2021/06/02 07:02:46;;;;;;;6.58;2.35;;;;;;;21.44;45.45;101049.89;1669381;84;26520;-61
2021/06/02 07:05:14;;;;;;;9.48;2.95;;;;;;;21.94;44.00;101049.99;1689354;83;27303;-61
2021/06/02 07:07:44;;;;;;;8.03;2.70;;;;;;;22.34;43.25;101045.16;1710530;82;25784;-60
2021/06/02 07:10:13;;;;;;;5.30;2.67;;;;;;;22.44;41.61;101046.45;1716281;81;25685;-61
2021/06/02 07:12:46;;;;;;;4.83;2.40;;;;;;;22.49;41.21;101053.84;1701202;83;25857;-61
2021/06/02 07:15:16;;;;;;;5.20;2.40;;;;;;;22.68;41.56;101047.39;1697393;82;25840;-62
2021/06/02 07:17:49;;;;;;;4.37;2.95;;;;;;;22.83;40.99;101048.38;1697944;82;28021;-62
2021/06/02 07:20:23;;;;;;;5.80;3.20;;;;;;;22.92;40.13;101046.13;1717430;81;25666;-62
2021/06/02 07:22:51;;;;;;;5.50;2.77;;;;;;;23.26;40.04;101055.03;1685835;83;25941;-61
2021/06/02 07:25:22;;;;;;;5.65;2.60;;;;;;;23.64;38.47;101048.89;1694444;83;26384;-62
2021/06/02 07:27:50;;;;;;;3.05;2.12;;;;;;;23.95;38.76;101056.49;1686800;83;25828;-62
2021/06/02 07:30:18;;;;;;;3.50;2.27;;;;;;;24.22;35.75;101057.09;1710799;81;27419;-61
2021/06/02 07:32:46;;;;;;;6.28;2.62;;;;;;;23.96;35.15;101054.73;1709763;82;25757;-62
2021/06/02 07:35:13;;;;;;;4.08;2.40;;;;;;;23.80;35.13;101052.21;1684019;81;26440;-62
2021/06/02 07:37:39;;;;;;;3.92;2.45;;;;;;;24.06;35.03;101057.38;1714380;81;25934;-62
2021/06/02 07:40:08;;;;;;;2.98;2.30;;;;;;;24.49;35.48;101059.65;1706732;81;25853;-63
2021/06/02 07:42:35;;;;;;;4.43;2.03;;;;;;;24.68;33.93;101053.06;1715166;81;27396;-63
2021/06/02 07:45:03;;;;;;;2.52;1.82;;;;;;;24.80;32.68;101055.48;1694029;83;25851;-63
2021/06/02 07:47:29;;;;;;;3.30;1.90;;;;;;;24.96;33.47;101059.30;1690556;82;25863;-63
2021/06/02 07:49:56;;;;;;;3.90;2.15;;;;;;;25.32;33.26;101063.63;1693153;83;27956;-62
2021/06/02 07:52:24;;;;;;;8.53;2.30;;;;;;;25.68;33.58;101058.14;1692387;83;25944;-62
2021/06/02 07:54:51;;;;;;;2.55;1.75;;;;;;;25.81;32.57;101048.27;1692138;82;27302;-62
2021/06/02 07:57:18;;;;;;;2.87;1.85;;;;;;;25.95;31.53;101048.06;1661778;84;25642;-59
2021/06/02 07:59:44;;;;;;;2.95;1.77;;;;;;;26.14;31.59;101059.37;1699374;83;26586;-59
2021/06/02 08:02:11;;;;;;;2.22;2.02;;;;;;;26.32;30.22;101060.71;1693149;83;26603;-59
2021/06/02 08:04:37;;;;;;;2.95;2.37;;;;;;;26.49;29.43;101052.94;1707841;82;25771;-59
2021/06/02 08:07:07;;;;;;;5.90;3.12;;;;;;;26.66;29.43;101049.95;1695771;83;27304;-61
2021/06/02 08:09:32;;;;;;;3.40;2.15;;;;;;;26.87;28.79;101056.03;1695513;82;25817;-62
2021/06/02 08:11:59;;;;;;;3.35;1.60;;;;;;;26.92;28.61;101056.19;1682100;83;26603;-61
2021/06/02 08:14:25;;;;;;;1.82;1.70;;;;;;;26.86;28.02;101055.83;1710850;81;25868;-61
2021/06/02 08:16:51;;;;;;;4.08;1.90;;;;;;;26.96;28.02;101062.54;1702621;81;25650;-62
2021/06/02 08:19:18;;;;;;;2.47;1.60;;;;;;;27.11;26.96;101061.28;1707669;81;27406;-61
2021/06/02 08:21:44;;;;;;;2.55;1.50;;;;;;;27.17;26.65;101071.35;1708075;81;25742;-61
2021/06/02 08:24:11;;;;;;;4.28;1.77;;;;;;;27.35;26.93;101060.19;1704582;82;25807;-61
2021/06/02 08:26:41;;;;;;;4.08;1.82;;;;;;;27.70;27.21;101056.38;1708441;81;26353;-61
2021/06/02 08:29:08;;;;;;;1.77;1.67;;;;;;;28.09;27.34;101060.04;1702646;81;25733;-59
2021/06/02 08:31:34;;;;;;;3.83;1.90;;;;;;;28.02;26.33;101065.67;1709471;81;27318;-61
2021/06/02 08:34:02;;;;;;;7.60;1.98;;;;;;;27.97;26.22;101066.89;1702629;82;27216;-61
2021/06/02 08:36:29;;;;;;;7.40;2.00;;;;;;;28.20;26.45;101068.30;1707674;81;25823;-61
2021/06/02 08:38:56;;;;;;;1.85;1.57;;;;;;;28.30;25.65;101068.19;1718364;81;25857;-62
2021/06/02 08:41:23;;;;;;;3.17;1.90;;;;;;;28.44;25.60;101065.86;1716249;81;25814;-62
2021/06/02 08:43:49;;;;;;;7.12;2.15;;;;;;;28.51;24.46;101076.91;1700697;82;27860;-62
2021/06/02 08:46:18;;;;;;;1.77;1.67;;;;;;;28.06;24.66;101081.70;1707856;81;25653;-62
2021/06/02 08:48:51;;;;;;;5.75;1.98;;;;;;;27.67;25.20;101081.39;1708576;82;25882;-62
2021/06/02 08:51:21;;;;;;;4.97;2.15;;;;;;;27.30;25.44;101076.67;1677568;83;25852;-61
2021/06/02 08:53:49;;;;;;;3.60;3.30;;;;;;;27.20;25.91;101078.88;1688562;83;25809;-62
2021/06/02 08:56:17;;;;;;;2.53;2.23;;;;;;;27.62;25.94;101072.91;1692762;83;27390;-63
2021/06/02 08:58:45;;;;;;;5.92;2.00;;;;;;;28.19;26.20;101084.79;1723182;81;25805;-62
2021/06/02 09:01:14;;;;;;;6.60;1.92;;;;;;;28.51;25.23;101067.16;1690956;83;25819;-61
2021/06/02 09:03:40;;;;;;;5.28;1.98;;;;;;;28.75;24.29;101067.33;1684625;83;25743;-61
2021/06/02 09:06:10;;;;;;;5.22;1.80;;;;;;;28.76;23.75;101068.92;1699260;83;26535;-61
2021/06/02 09:08:40;;;;;;;4.83;2.00;;;;;;;28.62;23.87;101071.85;1665073;83;27324;-61
2021/06/02 09:11:19;;;;;;;3.98;1.90;;;;;;;28.51;23.97;101064.38;1700583;82;25661;-62
2021/06/02 09:13:47;;;;;;;4.03;1.45;;;;;;;27.97;22.76;101069.67;1703933;82;25746;-62
2021/06/02 09:16:20;;;;;;;4.70;2.17;;;;;;;27.70;23.99;101069.47;1697653;83;26199;-62
2021/06/02 09:18:49;;;;;;;5.25;2.22;;;;;;;27.65;23.96;101060.98;1676873;82;26005;-62
2021/06/02 09:21:16;;;;;;;3.20;1.95;;;;;;;27.17;23.92;101064.41;1696779;82;28040;-62
2021/06/02 09:23:46;;;;;;;2.60;2.08;;;;;;;26.76;24.31;101055.28;1689113;83;25644;-61
2021/06/02 09:26:17;;;;;;;3.98;1.77;;;;;;;26.42;24.32;101065.45;1696545;82;25668;-61
2021/06/02 09:29:10;;;;;;;5.53;2.00;;;;;;;26.78;24.75;101061.20;1697662;82;26777;-61
2021/06/02 09:31:47;;;;;;;3.65;1.95;;;;;;;27.23;24.58;101060.02;1690971;83;25771;-61
2021/06/02 09:34:22;;;;;;;7.03;2.22;;;;;;;27.28;24.76;101068.54;1693652;82;29421;-61
2021/06/02 09:36:59;;;;;;;2.67;2.00;;;;;;;27.56;24.65;101054.47;1699715;82;25749;-60
2021/06/02 09:39:23;;;;;;;4.78;2.10;;;;;;;27.98;23.29;101054.59;1704726;82;25877;-61
2021/06/02 09:41:54;;;;;;;2.83;2.00;;;;;;;28.18;23.77;101056.78;1702199;82;25859;-60
2021/06/02 09:44:24;;;;;;;3.75;2.00;;;;;;;28.60;23.25;101063.91;1704980;81;25866;-60
2021/06/02 09:47:08;;;;;;;5.35;2.60;;;;;;;28.70;22.56;101052.48;1695233;82;27912;-62
2021/06/02 09:49:48;;;;;;;3.77;2.30;;;;;;;28.63;22.88;101050.56;1710440;82;25874;-61
2021/06/02 09:52:16;;;;;;;2.10;1.90;;;;;;;28.72;23.14;101052.84;1693788;81;25909;-60
2021/06/02 09:54:43;;;;;;;6.58;2.08;;;;;;;28.59;22.45;101055.98;1709697;81;25712;-58
2021/06/02 09:57:16;;;;;;;4.58;3.05;;;;;;;28.05;22.37;101063.47;1710839;81;25718;-58
2021/06/02 09:59:58;;;;;;;5.33;2.37;;;;;;;27.43;22.61;101057.56;1705345;81;27391;-53
2021/06/02 10:02:26;;;;;;;6.42;2.60;;;;;;;26.79;22.82;101049.71;1721229;81;25784;-56
2021/06/02 10:05:08;;;;;;;2.92;2.45;;;;;;;26.27;24.06;101056.36;1682440;83;25683;-55
2021/06/02 10:07:46;;;;;;;7.08;2.65;;;;;;;25.98;25.88;101054.99;1686894;82;25921;-55
2021/06/02 10:10:19;;;;;;;5.28;2.72;;;;;;;26.07;25.71;101051.84;1671147;83;25700;-55
2021/06/02 10:13:09;;;;;;;5.53;2.47;;;;;;;25.71;26.16;101062.30;1692353;83;27527;-55
2021/06/02 10:15:43;;;;;;;7.15;2.65;;;;;;;25.26;26.21;101061.80;1677482;83;25730;-55
2021/06/02 10:18:32;;;;;;;2.62;1.90;;;;;;;24.79;26.22;101064.38;1702913;82;25708;-55
2021/06/02 10:21:08;;;;;;;3.95;2.12;;;;;;;24.49;27.20;101057.66;1712952;82;25728;-54
2021/06/02 10:23:43;;;;;;;2.70;1.98;;;;;;;24.24;27.77;101043.08;1708696;81;25857;-55
2021/06/02 10:26:13;;;;;;;4.35;2.20;;;;;;;24.08;27.50;101045.95;1712157;81;27985;-55
2021/06/02 10:28:42;;;;;;;10.50;2.75;;;;;;;23.91;27.51;101044.63;1699986;82;25839;-55
2021/06/02 10:31:11;;;;;;;4.28;2.58;;;;;;;23.80;27.92;101051.39;1705542;81;25728;-55
2021/06/02 10:33:38;;;;;;;6.85;2.12;;;;;;;23.75;27.91;101056.70;1679073;83;26466;-55
2021/06/02 10:36:08;;;;;;;3.27;2.22;;;;;;;23.66;27.95;101053.45;1701032;82;25886;-56
2021/06/02 10:38:48;;;;;;;4.20;2.15;;;;;;;23.73;28.31;101054.89;1696454;83;27897;-55
2021/06/02 10:41:20;;;;;;;4.17;2.50;;;;;;;24.02;28.16;101049.07;1699056;82;26178;-56
2021/06/02 10:43:51;;;;;;;6.37;2.10;;;;;;;24.47;27.66;101047.59;1699908;82;25696;-55
2021/06/02 10:46:24;;;;;;;6.05;2.65;;;;;;;24.75;27.26;101051.11;1696641;83;25631;-55
2021/06/02 10:48:56;;;;;;;3.77;2.10;;;;;;;24.95;26.85;101052.98;1680728;83;25835;-56
2021/06/02 10:51:37;;;;;;;4.35;2.20;;;;;;;24.64;26.33;101036.45;1692082;82;28031;-54
2021/06/02 10:54:16;;;;;;;3.08;2.20;;;;;;;24.43;27.20;101044.80;1692294;82;25843;-54
2021/06/02 10:57:01;;;;;;;4.12;2.08;;;;;;;24.13;26.66;101029.80;1695122;83;26407;-54
2021/06/02 10:59:32;;;;;;;3.87;2.08;;;;;;;23.74;26.42;101035.77;1654607;84;26959;-55
2021/06/02 11:02:12;;;;;;;2.37;2.17;;;;;;;23.86;27.36;101032.74;1659660;84;25724;-55
2021/06/02 11:04:41;;;;;;;4.85;2.45;;;;;;;23.96;27.19;101041.52;1656079;84;27401;-55
2021/06/02 11:07:19;;;;;;;;;;;;;;;23.94;27.49;101034.17;1663053;84;25887;-55
2021/06/02 11:09:58;;;;;;;4.00;2.47;;;;;;;23.93;27.36;101041.67;1659561;84;25804;-56
2021/06/02 11:12:52;;;;;;;5.17;2.15;;;;;;;23.83;27.52;101040.41;1644933;84;25828;-55
2021/06/02 11:15:43;;;;;;;6.87;2.62;;;;;;;23.64;27.86;101039.23;1647815;85;26346;-56
2021/06/02 11:18:18;;;;;;;4.20;2.05;;;;;;;23.82;27.67;101040.78;1639608;85;27328;-55
2021/06/02 11:20:52;;;;;;;4.12;2.10;;;;;;;24.28;28.07;101036.79;1649400;85;25738;-55
2021/06/02 11:23:22;;;;;;;4.65;2.02;;;;;;;24.80;27.52;101038.28;1661155;85;25880;-56
2021/06/02 11:25:49;;;;;;;9.43;2.10;;;;;;;25.43;28.01;101040.09;1644349;85;25799;-56
2021/06/02 11:28:42;;;;;;;10.03;6.20;;;;;;;25.82;26.44;101035.19;1662510;84;25706;-55
2021/06/02 11:31:29;;;;;;;6.50;5.62;;;;;;;25.98;26.29;101030.66;1657768;85;26901;-55
2021/06/02 11:34:26;;;;;;;2.33;2.12;;;;;;;26.09;25.92;101034.22;1637084;86;25915;-56
2021/06/02 11:37:07;;;;;;;2.90;2.35;;;;;;;25.88;25.25;101040.52;1656812;84;26648;-55
2021/06/02 11:39:37;;;;;;;2.12;1.92;;;;;;;25.73;25.31;101049.44;1661976;84;27917;-55
2021/06/02 11:42:07;;;;;;;6.25;2.10;;;;;;;25.41;24.60;101046.03;1684172;84;25832;-55
2021/06/02 11:44:36;;;;;;;4.92;1.80;;;;;;;25.04;24.98;101046.30;1671212;84;27355;-55
2021/06/02 11:47:04;;;;;;;4.67;2.00;;;;;;;24.69;25.51;101050.48;1667720;84;25828;-55
2021/06/02 11:49:36;;;;;;;2.58;2.00;;;;;;;24.51;25.70;101052.53;1713885;83;25804;-55
2021/06/02 11:52:13;;;;;;;5.90;2.58;;;;;;;24.47;26.29;101046.77;1716751;82;25647;-55
2021/06/02 11:54:55;;;;;;;6.00;2.10;;;;;;;24.82;26.39;101054.50;1712089;83;25773;-54
2021/06/02 11:57:32;;;;;;;4.65;2.15;;;;;;;25.30;25.93;101045.20;1715510;82;27298;-55
2021/06/02 12:00:03;;;;;;;2.35;1.70;;;;;;;25.73;25.76;101050.83;1713852;81;25746;-55
2021/06/02 12:02:30;;;;;;;3.15;2.10;;;;;;;26.18;25.42;101036.58;1711988;83;25626;-56
2021/06/02 12:05:31;;;;;;;3.02;2.10;;;;;;;26.52;24.86;101045.21;1704057;83;25959;-56
2021/06/02 12:08:04;;;;;;;4.70;1.80;;;;;;;26.82;24.39;101035.03;1698268;82;25836;-56
2021/06/02 12:10:40;;;;;;;2.95;1.98;;;;;;;27.11;23.88;101033.52;1663710;84;29533;-56
2021/06/02 12:13:17;;;;;;;4.33;2.42;;;;;;;27.09;24.14;101032.33;1691113;81;25964;-56
2021/06/02 12:16:01;;;;;;;4.87;2.17;;;;;;;26.96;24.05;101033.39;1663474;84;25968;-55
2021/06/02 12:18:45;;;;;;;4.95;2.02;;;;;;;26.69;23.46;101033.11;1629147;87;25773;-55
2021/06/02 12:21:20;;;;;;;3.58;1.90;;;;;;;26.41;23.89;101029.22;1650542;85;25825;-55
2021/06/02 12:24:02;;;;;;;5.65;1.85;;;;;;;26.66;24.44;101036.08;1638374;86;25852;-56
2021/06/02 12:26:43;;;;;;;5.42;2.50;;;;;;;27.08;24.12;101026.59;1657716;85;25876;-56
2021/06/02 12:29:16;;;;;;;11.65;3.10;;;;;;;27.58;24.34;101020.15;1672628;84;25937;-55
2021/06/02 12:31:58;;;;;;;3.58;1.82;;;;;;;28.05;23.05;101022.55;1656284;85;25768;-55
2021/06/02 12:34:24;;;;;;;6.92;2.67;;;;;;;27.95;22.69;101015.88;1657207;85;25711;-55
2021/06/02 12:36:53;;;;;;;4.37;2.00;;;;;;;27.73;22.76;101020.80;1656159;85;27601;-55
2021/06/02 12:39:23;;;;;;;5.22;2.52;;;;;;;27.34;22.54;101025.27;1653583;85;26575;-55
2021/06/02 12:41:52;;;;;;;2.15;1.80;;;;;;;26.88;22.51;101023.52;1659201;85;25905;-55
2021/06/02 12:44:31;;;;;;;3.70;2.12;;;;;;;26.42;22.92;101028.00;1656928;85;25778;-55
2021/06/02 12:47:07;;;;;;;7.87;2.25;;;;;;;26.06;23.35;101028.86;1660520;84;26109;-55
2021/06/02 12:49:44;;;;;;;8.68;2.12;;;;;;;25.77;23.57;101029.44;1680290;84;28031;-55
2021/06/02 12:52:11;;;;;;;5.55;3.40;;;;;;;25.63;24.40;101032.22;1681372;81;25998;-55
2021/06/02 12:54:40;;;;;;;7.12;2.80;;;;;;;25.90;24.63;101022.92;1726534;81;25887;-55
2021/06/02 12:57:09;;;;;;;3.05;2.10;;;;;;;26.02;24.42;101025.91;1725075;81;26265;-54
2021/06/02 12:59:38;;;;;;;8.45;2.72;;;;;;;25.98;23.95;101019.56;1689541;84;25804;-55
2021/06/02 13:02:09;;;;;;;5.92;2.20;;;;;;;25.70;23.99;101027.46;1683330;83;27378;-55
2021/06/02 13:04:36;;;;;;;5.62;2.20;;;;;;;25.41;24.05;101026.64;1683682;84;25967;-55
2021/06/02 13:07:03;;;;;;;4.67;2.08;;;;;;;25.56;24.67;101025.27;1690424;84;25868;-55
2021/06/02 13:09:30;;;;;;;4.47;2.62;;;;;;;25.94;24.33;101022.31;1676780;83;25900;-55
2021/06/02 13:11:57;;;;;;;6.12;2.27;;;;;;;25.84;24.09;101013.41;1695728;83;25666;-55
2021/06/02 13:14:40;;;;;;;4.72;1.60;;;;;;;25.83;24.31;101011.81;1696221;82;28015;-54
2021/06/02 13:17:07;;;;;;;3.67;2.10;;;;;;;25.67;23.64;101027.46;1702877;83;25834;-55
2021/06/02 13:19:41;;;;;;;6.25;2.27;;;;;;;25.44;24.07;101021.71;1692421;83;25893;-56
2021/06/02 13:22:23;;;;;;;2.47;2.02;;;;;;;25.25;23.95;101026.18;1723442;82;25714;-55
2021/06/02 13:24:50;;;;;;;4.60;2.20;;;;;;;24.94;24.22;101039.53;1729284;81;25713;-54
2021/06/02 13:27:20;;;;;;;6.22;2.83;;;;;;;24.66;24.57;101037.45;1719783;82;27345;-54
2021/06/02 13:30:05;;;;;;;3.47;2.05;;;;;;;24.49;24.55;101032.78;1736675;81;25831;-54
2021/06/02 13:32:32;;;;;;;4.03;2.40;;;;;;;24.29;24.83;101038.39;1700198;83;25813;-54
2021/06/02 13:35:18;;;;;;;5.80;2.05;;;;;;;24.30;25.39;101038.60;1707346;82;25676;-54
2021/06/02 13:37:46;;;;;;;5.58;2.20;;;;;;;24.56;25.35;101038.38;1707214;81;25735;-55
2021/06/02 13:40:17;;;;;;;3.87;2.10;;;;;;;24.90;25.43;101040.91;1693257;82;27295;-55
2021/06/02 13:43:08;;;;;;;5.53;1.87;;;;;;;25.20;25.11;101042.59;1698592;82;25790;-55
2021/06/02 13:45:51;;;;;;;4.87;2.10;;;;;;;25.54;24.88;101034.00;1663129;83;25816;-54
2021/06/02 13:48:31;;;;;;;4.03;2.33;;;;;;;25.85;24.21;101026.87;1692207;83;25639;-55
2021/06/02 13:51:19;;;;;;;2.90;1.92;;;;;;;26.10;23.85;101021.92;1684263;83;25732;-56
2021/06/02 13:54:18;;;;;;;2.83;1.87;;;;;;;26.16;23.34;101030.04;1672083;82;27311;-57
2021/06/02 13:57:10;;;;;;;2.80;2.05;;;;;;;26.25;23.36;101026.86;1679351;83;25814;-50
2021/06/02 13:59:55;;;;;;;4.45;1.92;;;;;;;26.39;23.37;101029.61;1656756;85;25733;-55
2021/06/02 14:02:31;;;;;;;4.28;2.00;;;;;;;26.43;23.71;101017.91;1670945;83;25723;-50
2021/06/02 14:05:08;;;;;;;6.90;2.35;;;;;;;26.38;23.28;101034.95;1689242;83;25874;-50
2021/06/02 14:07:39;;;;;;;7.50;2.17;;;;;;;26.11;23.10;101026.89;1691315;82;28011;-56
2021/06/02 14:10:08;;;;;;;3.35;2.08;;;;;;;25.73;23.33;101029.45;1721038;82;25822;-54
2021/06/02 14:12:37;;;;;;;;;;;;;;;25.64;23.76;101038.75;1698415;82;26370;-55
2021/06/02 14:15:06;;;;;;;7.95;2.05;;;;;;;25.73;24.11;101029.45;1678050;82;25790;-55
2021/06/02 14:17:33;;;;;;;;;;;;;;;25.91;24.08;101038.34;1668139;84;25736;-57
2021/06/02 14:19:59;;;;;;;4.62;2.20;;;;;;;25.95;23.67;101036.41;1672765;83;27390;-56
2021/06/02 14:22:26;;;;;;;3.10;2.02;;;;;;;25.70;23.62;101045.47;1672430;83;25903;-56
2021/06/02 14:24:52;;;;;;;2.60;1.87;;;;;;;25.51;23.79;101051.39;1666255;84;26510;-56
2021/06/02 14:27:19;;;;;;;4.08;2.08;;;;;;;25.35;23.76;101047.59;1657647;84;25957;-57
2021/06/02 14:29:45;;;;;;;6.25;2.17;;;;;;;25.32;23.85;101044.24;1649229;85;25780;-55
2021/06/02 14:32:13;;;;;;;8.45;2.58;;;;;;;25.30;23.81;101044.63;1671061;84;27318;-54
2021/06/02 14:34:40;;;;;;;4.40;1.92;;;;;;;25.31;24.16;101049.56;1666013;83;25869;-55
2021/06/02 14:37:08;;;;;;;2.50;1.80;;;;;;;25.45;24.22;101041.28;1674539;83;25673;-54
2021/06/02 14:39:35;;;;;;;5.60;1.98;;;;;;;25.60;23.93;101039.92;1705365;82;26303;-54
2021/06/02 14:42:02;;;;;;;4.87;2.65;;;;;;;25.69;23.86;101032.01;1693563;83;25676;-56
2021/06/02 14:44:28;;;;;;;4.37;2.87;;;;;;;25.73;23.62;101020.35;1690612;83;27347;-56
2021/06/02 15:08:50;;;;;;;5.92;2.27;;;;;;;25.24;23.65;101036.47;1758384;78;25835;-56
2021/06/02 15:11:18;;;;;;;3.22;1.75;;;;;;;24.79;23.97;101048.35;1765655;79;27764;-56
2021/06/02 15:13:44;;;;;;;2.20;1.67;;;;;;;24.53;24.26;101043.86;1759926;80;25752;-56
2021/06/02 15:16:11;;;;;;;5.33;2.15;;;;;;;24.39;24.61;101048.72;1763391;80;29600;-56
2021/06/02 15:18:37;;;;;;;2.85;2.08;;;;;;;24.19;24.67;101045.42;1746260;80;25838;-56
2021/06/02 15:21:04;;;;;;;6.37;2.42;;;;;;;23.97;24.89;101052.19;1763278;80;25727;-55
2021/06/02 15:23:31;;;;;;;4.72;3.40;;;;;;;23.76;24.88;101052.75;1762067;80;25862;-55
2021/06/02 15:25:59;;;;;;;2.80;2.37;;;;;;;23.61;25.25;101055.17;1796130;78;25778;-54
2021/06/02 15:28:44;;;;;;;6.15;3.30;;;;;;;23.53;25.23;101046.05;1762793;79;27358;-56
2021/06/02 15:31:13;;;;;;;6.28;3.52;;;;;;;23.37;25.70;101057.89;1740304;80;25973;-55
2021/06/02 15:33:42;;;;;;;5.80;2.40;;;;;;;23.22;25.82;101052.80;1744384;81;25780;-55
2021/06/02 15:36:11;;;;;;;6.37;2.12;;;;;;;23.11;25.75;101054.84;1716940;81;34944;-55
2021/06/02 15:38:38;;;;;;;4.00;2.30;;;;;;;23.05;25.89;101050.01;1743688;81;25648;-56
2021/06/02 15:41:07;;;;;;;3.90;1.90;;;;;;;22.99;25.88;101053.70;1746182;81;27307;-56
2021/06/02 15:43:34;;;;;;;5.62;1.80;;;;;;;22.97;25.99;101052.47;1745953;81;25773;-55
2021/06/02 15:46:02;;;;;;;7.40;2.20;;;;;;;22.97;26.15;101049.14;1717612;81;25727;-56
2021/06/02 15:48:30;;;;;;;8.43;2.50;;;;;;;22.92;26.43;101048.88;1751054;80;26271;-56
2021/06/02 15:50:57;;;;;;;7.35;2.77;;;;;;;22.89;26.07;101046.87;1748620;81;25728;-55
2021/06/02 15:53:29;;;;;;;5.47;2.40;;;;;;;22.81;25.87;101042.42;1745359;80;27415;-56
2021/06/02 15:56:04;;;;;;;2.67;2.35;;;;;;;22.75;25.96;101041.97;1772010;79;25851;-54
2021/06/02 15:58:32;;;;;;;3.25;2.20;;;;;;;22.71;25.89;101043.08;1755630;79;25370;-55
2021/06/02 16:01:03;;;;;;;4.12;2.33;;;;;;;22.66;26.05;101041.47;1759673;79;26209;-55
2021/06/02 16:03:29;;;;;;;5.53;1.92;;;;;;;22.69;26.39;101046.80;1740348;80;26470;-57
2021/06/02 16:05:56;;;;;;;5.53;2.20;;;;;;;22.66;26.12;101042.03;1760458;80;27319;-55
2021/06/02 16:08:23;;;;;;;2.45;2.20;;;;;;;22.56;26.25;101038.77;1762640;78;25823;-56
2021/06/02 16:10:50;;;;;;;4.45;2.40;;;;;;;22.51;26.39;101041.84;1744156;80;26026;-54
2021/06/02 16:13:18;;;;;;;6.78;2.35;;;;;;;22.49;26.44;101041.99;1771209;79;25698;-57
2021/06/02 16:15:46;;;;;;;;;;;;;;;22.44;26.42;101042.31;1768155;79;25981;-56
2021/06/02 16:18:16;;;;;;;5.47;2.55;;;;;;;22.41;26.68;101034.23;1782176;79;27489;-56
2021/06/02 16:20:43;;;;;;;6.58;2.35;;;;;;;22.39;26.82;101048.97;1765095;79;25708;-55
2021/06/02 16:23:10;;;;;;;5.37;2.40;;;;;;;22.39;26.90;101050.34;1755283;79;25678;-54
2021/06/02 16:25:37;;;;;;;7.25;2.20;;;;;;;22.34;26.67;101045.16;1767773;79;26260;-56
2021/06/02 16:28:05;;;;;;;4.60;2.33;;;;;;;22.24;26.64;101038.87;1777616;79;25870;-55
2021/06/02 16:30:33;;;;;;;3.10;2.33;;;;;;;22.12;26.76;101035.73;1751558;79;29541;-55
2021/06/02 16:33:04;;;;;;;2.45;2.10;;;;;;;22.07;27.12;101045.09;1771176;78;25854;-55
2021/06/02 16:35:31;;;;;;;2.77;2.12;;;;;;;22.02;26.90;101039.91;1775314;79;25786;-55
2021/06/02 16:37:57;;;;;;;7.30;2.35;;;;;;;21.94;27.03;101038.19;1776467;78;25771;-55
2021/06/02 16:40:24;;;;;;;5.10;2.33;;;;;;;21.86;26.97;101050.25;1767913;78;25876;-56
2021/06/02 16:42:52;;;;;;;5.58;2.00;;;;;;;21.77;27.05;101054.03;1771414;78;27250;-57
2021/06/02 16:45:18;;;;;;;5.67;2.40;;;;;;;21.61;27.25;101050.03;1807826;77;25651;-55
2021/06/02 16:47:45;;;;;;;4.10;2.40;;;;;;;21.53;27.62;101045.55;1810194;77;25675;-56
2021/06/02 16:50:13;;;;;;;7.30;2.87;;;;;;;21.45;27.75;101043.80;1783651;78;26114;-56
2021/06/02 16:52:41;;;;;;;4.62;2.22;;;;;;;21.40;27.95;101052.35;1805520;78;25623;-56
2021/06/02 16:55:12;;;;;;;5.97;2.30;;;;;;;21.31;27.74;101051.21;1783106;79;28011;-56
2021/06/02 16:57:41;;;;;;;4.45;2.80;;;;;;;21.23;28.04;101051.66;1781007;79;25937;-56
2021/06/02 17:00:19;;;;;;;6.40;2.70;;;;;;;21.14;28.01;101051.08;1772949;80;26000;-56
2021/06/02 17:02:46;;;;;;;4.92;2.42;;;;;;;21.06;27.98;101048.78;1814126;77;26603;-56
2021/06/02 17:05:13;;;;;;;9.43;3.05;;;;;;;21.03;28.07;101052.84;1777182;78;25723;-57
2021/06/02 17:07:40;;;;;;;5.87;2.80;;;;;;;20.98;28.08;101058.62;1757953;79;27303;-58
2021/06/02 17:10:08;;;;;;;8.13;2.42;;;;;;;20.92;28.07;101057.30;1758745;78;26482;-57
2021/06/02 17:12:35;;;;;;;3.33;2.25;;;;;;;20.86;28.02;101060.34;1775388;77;25856;-57
2021/06/02 17:15:04;;;;;;;5.12;2.98;;;;;;;20.80;28.25;101064.52;1747145;79;25996;-56
2021/06/02 17:17:45;;;;;;;3.02;2.30;;;;;;;20.73;28.43;101063.00;1758590;79;26039;-58
2021/06/02 17:20:13;;;;;;;7.78;2.27;;;;;;;20.68;28.51;101068.19;1770265;79;27336;-58
2021/06/02 17:22:44;;;;;;;8.38;2.65;;;;;;;20.60;28.65;101070.56;1771540;79;25881;-57
2021/06/02 17:25:13;;;;;;;5.78;2.30;;;;;;;20.48;28.78;101072.84;1764408;78;25723;-56
2021/06/02 17:27:45;;;;;;;4.95;2.40;;;;;;;20.41;28.89;101073.23;1773056;78;32689;-56
2021/06/02 17:30:14;;;;;;;14.45;5.33;;;;;;;20.35;28.84;101074.09;1758591;79;25994;-57
2021/06/02 17:32:44;;;;;;;6.20;2.70;;;;;;;20.30;29.26;101073.78;1761788;79;27883;-57
2021/06/02 17:35:12;;;;;;;7.30;2.45;;;;;;;20.27;29.57;101069.58;1760956;79;27133;-57
2021/06/02 17:37:39;;;;;;;10.50;2.85;;;;;;;20.22;29.68;101073.98;1769008;79;25353;-57
2021/06/02 17:40:12;;;;;;;6.83;2.92;;;;;;;20.14;29.53;101075.73;1776066;78;25817;-57
2021/06/02 17:42:40;;;;;;;12.25;3.55;;;;;;;20.09;29.83;101078.20;1733981;80;25727;-56
2021/06/02 17:45:11;;;;;;;8.08;2.77;;;;;;;20.04;30.10;101079.83;1758927;79;27294;-56
2021/06/02 17:47:42;;;;;;;6.42;2.77;;;;;;;20.00;30.28;101079.52;1785709;78;25800;-58
2021/06/02 17:50:12;;;;;;;15.28;3.47;;;;;;;19.92;30.76;101075.78;1755267;79;25928;-58
2021/06/02 17:52:59;;;;;;;20.10;3.33;;;;;;;19.87;30.90;101076.05;1756150;79;25963;-57
2021/06/02 17:55:26;;;;;;;10.35;2.83;;;;;;;19.82;31.03;101086.73;1754475;78;25816;-58
2021/06/02 17:57:58;;;;;;;11.18;3.45;;;;;;;19.75;31.16;101083.22;1734655;79;27357;-58
2021/06/02 18:00:26;;;;;;;11.65;3.92;;;;;;;19.69;31.45;101080.47;1751646;79;26552;-58
2021/06/02 18:02:52;;;;;;;8.70;3.10;;;;;;;19.62;31.74;101085.78;1760559;78;25887;-58
2021/06/02 18:05:20;;;;;;;7.87;2.42;;;;;;;19.53;31.79;101079.08;1779604;78;26109;-57